Time;durP1;ratioP1;P1;durP2;ratioP2;P2;SDS_P1;SDS_P2;PMS_P1;PMS_P2;Temp;Humidity;BMP_temperature;BMP_pressure;BME280_temperature;BME280_humidity;BME280_pressure;Samples;Min_cycle;Max_cycle;Signal;HPM_P1;HPM_P2
2023/05/08 03:01:36;;;;;;;25.05;16.88;;;12.30;99.90;;;;;;5587400;23;20046;-77
2023/05/08 03:04:08;;;;;;;22.73;16.20;;;12.30;99.90;;;;;;4978466;28;20038;-76
2023/05/08 03:06:41;;;;;;;23.88;16.20;;;12.30;99.90;;;;;;4978513;28;20038;-78
2023/05/08 03:09:13;;;;;;;25.88;17.42;;;12.30;99.90;;;;;;4996036;28;20119;-78
2023/05/08 03:11:42;;;;;;;26.90;17.75;;;12.20;99.90;;;;;;4977452;28;20086;-78
2023/05/08 03:14:11;;;;;;;24.63;16.95;;;12.20;99.90;;;;;;4978983;28;20096;-78
2023/05/08 03:16:40;;;;;;;26.88;17.42;;;12.20;99.90;;;;;;4978146;28;20077;-78
2023/05/08 03:19:11;;;;;;;23.92;17.30;;;12.20;99.90;;;;;;4978345;28;20034;-78
2023/05/08 03:21:39;;;;;;;25.58;17.63;;;12.20;99.90;;;;;;4995690;28;20111;-77
2023/05/08 03:24:07;;;;;;;26.45;17.98;;;12.20;99.90;;;;;;4978642;28;20097;-78
2023/05/08 03:26:34;;;;;;;25.08;17.60;;;12.10;99.90;;;;;;4996015;28;20382;-77
2023/05/08 03:29:00;;;;;;;23.02;16.65;;;12.10;99.90;;;;;;4961989;28;20046;-79
2023/05/08 03:31:27;;;;;;;23.27;17.33;;;12.10;99.90;;;;;;4995272;28;20049;-77
2023/05/08 03:33:54;;;;;;;24.80;16.95;;;12.10;99.90;;;;;;4979005;28;20049;-79
2023/05/08 03:36:21;;;;;;;25.20;16.80;;;12.00;99.90;;;;;;4995340;28;20578;-78
2023/05/08 03:38:47;;;;;;;26.83;17.52;;;12.00;99.90;;;;;;4978361;28;20042;-77
2023/05/08 03:41:13;;;;;;;23.63;16.85;;;11.90;99.90;;;;;;4995121;28;20581;-77
2023/05/08 03:43:40;;;;;;;23.10;16.27;;;11.90;99.90;;;;;;4982409;28;20121;-78
2023/05/08 03:46:06;;;;;;;25.50;17.45;;;11.90;99.90;;;;;;4995352;28;20150;-77
2023/05/08 03:48:33;;;;;;;26.63;17.48;;;11.80;99.90;;;;;;4994019;28;20469;-77
2023/05/08 03:51:03;;;;;;;27.10;18.25;;;11.70;99.90;;;;;;4993567;28;20125;-77
2023/05/08 03:53:30;;;;;;;27.38;18.55;;;11.60;99.90;;;;;;4993870;28;20367;-78
2023/05/08 03:55:57;;;;;;;23.80;17.00;;;11.60;99.90;;;;;;4993746;28;20100;-75
2023/05/08 03:58:45;;;;;;;24.75;17.00;;;11.60;99.90;;;;;;4993565;28;20418;-77
2023/05/08 04:01:12;;;;;;;24.80;17.08;;;11.60;99.90;;;;;;4994675;28;20512;-77
2023/05/08 04:04:15;;;;;;;30.45;17.23;;;11.50;99.90;;;;;;4977281;28;20509;-78
2023/05/08 04:06:56;;;;;;;25.35;16.95;;;11.50;99.90;;;;;;4994511;28;20556;-78
2023/05/08 04:09:37;;;;;;;27.02;18.30;;;11.50;99.90;;;;;;4983907;28;20042;-77
2023/05/08 04:12:12;;;;;;;24.75;17.00;;;11.50;99.90;;;;;;4977134;28;20055;-77
2023/05/08 04:14:52;;;;;;;26.70;16.77;;;11.40;99.90;;;;;;4977324;28;20050;-76
2023/05/08 04:17:30;;;;;;;26.88;17.13;;;11.40;99.90;;;;;;4974332;28;20120;-78
2023/05/08 04:20:01;;;;;;;25.77;17.08;;;11.40;99.90;;;;;;4976893;28;20071;-77
2023/05/08 04:22:30;;;;;;;24.33;16.27;;;11.40;99.90;;;;;;4976968;28;20048;-83
2023/05/08 04:25:00;;;;;;;23.48;16.80;;;11.40;99.90;;;;;;4975844;28;20046;-78
2023/05/08 04:27:26;;;;;;;24.75;16.75;;;11.30;99.90;;;;;;4976731;28;20053;-77
2023/05/08 04:29:53;;;;;;;26.15;16.98;;;11.30;99.90;;;;;;4958730;28;20067;-81
2023/05/08 04:32:19;;;;;;;24.38;15.90;;;11.30;99.90;;;;;;4957433;28;20097;-81
2023/05/08 04:34:45;;;;;;;24.02;15.63;;;11.30;99.90;;;;;;4955458;28;20433;-79
2023/05/08 04:37:25;;;;;;;24.63;16.77;;;11.30;99.90;;;;;;4977076;28;20045;-79
2023/05/08 04:39:51;;;;;;;26.60;16.17;;;11.30;99.90;;;;;;4976588;28;20561;-80
2023/05/08 04:42:17;;;;;;;24.67;16.17;;;11.30;99.90;;;;;;4976746;28;20206;-79
2023/05/08 04:44:43;;;;;;;23.20;16.48;;;11.30;99.90;;;;;;4976563;28;20039;-77
2023/05/08 04:47:09;;;;;;;23.27;16.25;;;11.30;99.90;;;;;;4976433;28;20080;-77
2023/05/08 04:49:34;;;;;;;21.58;15.35;;;11.30;99.90;;;;;;4975869;28;20049;-79
2023/05/08 04:52:01;;;;;;;23.50;15.98;;;11.30;99.90;;;;;;4993201;28;20066;-80
2023/05/08 04:54:27;;;;;;;23.35;15.38;;;11.30;99.90;;;;;;4975917;28;20163;-81
2023/05/08 04:56:52;;;;;;;24.48;15.27;;;11.30;99.90;;;;;;4992942;28;20501;-81
2023/05/08 04:59:18;;;;;;;22.52;14.77;;;11.30;99.90;;;;;;4993459;28;20049;-79
2023/05/08 05:01:46;;;;;;;22.23;15.05;;;11.30;99.90;;;;;;4974926;28;20129;-81
2023/05/08 05:04:11;;;;;;;22.17;15.65;;;11.30;99.90;;;;;;4971319;28;20079;-80
2023/05/08 05:06:37;;;;;;;20.77;14.20;;;11.30;99.90;;;;;;4956828;28;20049;-81
2023/05/08 05:09:04;;;;;;;19.58;14.15;;;11.40;99.90;;;;;;4956946;28;20126;-79
2023/05/08 05:11:29;;;;;;;23.42;15.43;;;11.40;99.90;;;;;;4957134;28;20050;-78
2023/05/08 05:13:56;;;;;;;21.77;15.20;;;11.40;99.90;;;;;;4956461;28;20362;-80
2023/05/08 05:16:21;;;;;;;22.52;14.95;;;11.40;99.90;;;;;;4956698;28;20050;-82
2023/05/08 05:18:47;;;;;;;22.00;14.70;;;11.40;99.90;;;;;;4956833;28;20031;-78
2023/05/08 05:21:12;;;;;;;21.23;14.52;;;11.40;99.90;;;;;;4956644;28;20039;-80
2023/05/08 05:23:38;;;;;;;20.50;14.00;;;11.50;99.90;;;;;;4957273;28;20046;-81
2023/05/08 05:26:04;;;;;;;21.73;14.57;;;11.40;99.90;;;;;;4962395;28;20406;-83
2023/05/08 05:28:30;;;;;;;21.30;14.00;;;11.50;99.90;;;;;;4976238;28;20085;-82
2023/05/08 05:30:55;;;;;;;21.50;14.27;;;11.50;99.90;;;;;;4975802;28;20038;-80
2023/05/08 05:33:21;;;;;;;21.83;14.18;;;11.50;99.90;;;;;;4976213;28;20426;-79
2023/05/08 05:35:47;;;;;;;21.83;14.63;;;11.50;99.90;;;;;;4979015;28;20394;-79
2023/05/08 05:38:12;;;;;;;21.80;14.15;;;11.50;99.90;;;;;;4980054;28;20517;-81
2023/05/08 05:40:38;;;;;;;22.30;14.07;;;11.60;99.90;;;;;;4963683;28;20050;-79
2023/05/08 05:43:04;;;;;;;20.92;14.23;;;11.60;99.90;;;;;;4997476;28;20043;-82
2023/05/08 05:45:30;;;;;;;21.85;14.55;;;11.60;99.90;;;;;;4997388;28;20066;-79
2023/05/08 05:47:55;;;;;;;22.67;14.70;;;11.70;99.90;;;;;;4979716;28;20173;-80
2023/05/08 05:50:21;;;;;;;20.77;14.38;;;11.70;99.90;;;;;;4979298;28;20129;-79
2023/05/08 05:52:47;;;;;;;20.88;14.63;;;11.80;99.90;;;;;;4980017;28;20037;-80
2023/05/08 05:55:13;;;;;;;19.58;13.85;;;11.80;99.90;;;;;;4979506;28;20038;-80
2023/05/08 05:57:38;;;;;;;18.60;13.25;;;11.80;99.90;;;;;;4987156;28;20041;-80
2023/05/08 06:00:05;;;;;;;22.52;14.60;;;11.90;99.90;;;;;;4973825;28;20045;-79
2023/05/08 06:02:32;;;;;;;18.80;13.98;;;11.90;99.90;;;;;;4972788;28;20480;-82
2023/05/08 06:04:59;;;;;;;22.00;14.30;;;12.00;99.90;;;;;;4982142;28;20046;-85
2023/05/08 06:07:24;;;;;;;19.30;13.70;;;12.00;99.90;;;;;;4996696;28;20122;-80
2023/05/08 06:09:51;;;;;;;20.30;13.95;;;12.00;99.90;;;;;;4979492;28;20104;-82
2023/05/08 06:12:17;;;;;;;19.08;14.48;;;12.10;99.90;;;;;;4979442;28;20379;-83
2023/05/08 06:14:43;;;;;;;20.38;14.18;;;12.10;99.90;;;;;;4962965;28;20181;-80
2023/05/08 06:17:09;;;;;;;21.35;14.70;;;12.10;99.90;;;;;;4979243;28;20486;-81
2023/05/08 06:19:35;;;;;;;18.30;13.40;;;12.10;99.90;;;;;;4978935;28;20038;-78
2023/05/08 06:22:03;;;;;;;19.30;13.40;;;12.10;99.90;;;;;;4979123;28;20402;-82
2023/05/08 06:24:29;;;;;;;19.23;13.80;;;12.20;99.90;;;;;;4979293;28;20046;-80
2023/05/08 06:26:55;;;;;;;19.08;12.85;;;12.30;99.90;;;;;;4996662;28;20042;-82
2023/05/08 06:29:21;;;;;;;19.25;13.80;;;12.40;99.90;;;;;;4963570;28;20034;-81
2023/05/08 06:31:46;;;;;;;19.00;14.25;;;12.40;99.90;;;;;;4978805;28;20077;-82
2023/05/08 06:34:12;;;;;;;18.58;13.00;;;12.50;99.90;;;;;;4978679;28;20165;-81
2023/05/08 06:36:38;;;;;;;19.60;13.30;;;12.70;99.90;;;;;;4979070;28;20484;-81
2023/05/08 06:39:05;;;;;;;18.42;13.93;;;12.70;99.90;;;;;;4996543;28;20038;-81
2023/05/08 06:41:31;;;;;;;21.48;13.15;;;12.80;99.90;;;;;;4978735;28;20050;-82
2023/05/08 06:43:56;;;;;;;17.85;13.40;;;12.90;99.90;;;;;;4979194;28;20057;-82
2023/05/08 06:46:22;;;;;;;20.08;13.48;;;13.00;99.90;;;;;;4995611;28;20030;-82
2023/05/08 06:48:48;;;;;;;20.35;13.93;;;13.00;99.90;;;;;;4996067;28;20038;-83
2023/05/08 06:51:13;;;;;;;19.00;13.25;;;13.10;99.90;;;;;;4978761;28;20042;-82
2023/05/08 06:53:39;;;;;;;18.58;13.40;;;13.10;99.90;;;;;;4978945;28;20042;-80
2023/05/08 06:56:05;;;;;;;18.60;13.05;;;13.10;99.90;;;;;;4978468;28;20524;-82
2023/05/08 06:58:31;;;;;;;17.55;12.68;;;13.10;99.90;;;;;;4962453;28;20048;-82
2023/05/08 07:01:00;;;;;;;17.20;12.93;;;13.10;99.90;;;;;;4978368;28;20050;-81
2023/05/08 07:03:26;;;;;;;20.42;13.75;;;13.10;99.90;;;;;;4978711;28;20482;-81
2023/05/08 07:05:52;;;;;;;17.52;12.90;;;13.10;99.90;;;;;;4962843;28;20043;-82
2023/05/08 07:08:18;;;;;;;17.80;12.50;;;13.10;99.90;;;;;;4978808;28;20054;-82
2023/05/08 07:10:43;;;;;;;18.67;13.60;;;13.10;99.90;;;;;;4978084;28;20054;-81
2023/05/08 07:13:09;;;;;;;20.50;13.40;;;13.20;99.90;;;;;;4962176;28;20437;-81
2023/05/08 07:15:35;;;;;;;18.55;13.45;;;13.20;99.90;;;;;;4995715;28;20038;-82
2023/05/08 07:18:00;;;;;;;20.73;13.85;;;13.20;99.90;;;;;;4995773;28;20553;-82
2023/05/08 07:20:27;;;;;;;18.98;13.43;;;13.20;99.90;;;;;;4978007;28;20048;-81
2023/05/08 07:22:52;;;;;;;18.48;13.35;;;13.20;99.90;;;;;;4978540;28;20128;-83
2023/05/08 07:25:18;;;;;;;19.13;13.63;;;13.30;99.90;;;;;;4978123;28;20034;-83
2023/05/08 07:27:44;;;;;;;19.40;13.35;;;13.30;99.90;;;;;;4978126;28;20394;-83
2023/05/08 07:30:10;;;;;;;20.35;13.07;;;13.30;99.90;;;;;;4995197;28;20034;-82
2023/05/08 07:32:37;;;;;;;17.25;12.50;;;13.40;99.90;;;;;;4995342;28;20038;-83
2023/05/08 07:35:05;;;;;;;18.83;13.32;;;13.40;99.90;;;;;;4995809;28;20041;-83
2023/05/08 07:37:31;;;;;;;20.02;13.05;;;13.40;99.90;;;;;;4979009;28;20050;-83
2023/05/08 07:39:57;;;;;;;19.95;13.70;;;13.40;99.90;;;;;;4995690;28;20113;-82
2023/05/08 07:42:23;;;;;;;18.88;12.68;;;13.50;99.90;;;;;;4978150;28;20078;-81
2023/05/08 07:44:49;;;;;;;19.40;13.63;;;13.50;99.90;;;;;;4995739;28;20128;-81
2023/05/08 07:47:14;;;;;;;20.08;13.23;;;13.60;99.90;;;;;;4995606;28;20038;-81
2023/05/08 07:49:40;;;;;;;17.95;12.95;;;13.70;99.90;;;;;;4978233;28;20042;-78
2023/05/08 07:52:06;;;;;;;18.73;13.82;;;13.80;99.90;;;;;;4977528;28;20043;-76
2023/05/08 07:54:32;;;;;;;18.65;13.57;;;13.90;99.90;;;;;;4995429;28;20045;-79
2023/05/08 07:56:57;;;;;;;19.13;13.60;;;14.00;99.90;;;;;;4977404;28;20112;-81
2023/05/08 07:59:23;;;;;;;18.40;13.50;;;14.10;99.90;;;;;;4995241;28;20038;-82
2023/05/08 08:01:49;;;;;;;17.92;13.23;;;14.20;99.90;;;;;;4978197;28;20046;-83
2023/05/08 08:04:15;;;;;;;17.50;13.60;;;14.30;99.90;;;;;;4978016;28;20061;-82
2023/05/08 08:06:41;;;;;;;18.45;12.52;;;14.50;99.90;;;;;;4961859;28;20056;-83
2023/05/08 08:09:07;;;;;;;20.10;13.40;;;14.60;99.90;;;;;;4995335;28;20046;-82
2023/05/08 08:11:32;;;;;;;19.23;13.32;;;14.70;99.90;;;;;;4978740;28;20446;-81
2023/05/08 08:13:58;;;;;;;18.30;13.07;;;14.80;99.90;;;;;;4980096;28;20524;-79
2023/05/08 08:16:24;;;;;;;20.17;13.10;;;14.90;99.90;;;;;;4997003;28;20046;-81
2023/05/08 08:18:51;;;;;;;17.98;13.65;;;15.00;99.90;;;;;;4978971;28;20049;-82
2023/05/08 08:21:18;;;;;;;17.17;13.30;;;15.10;99.90;;;;;;4995745;28;20104;-83
2023/05/08 08:23:43;;;;;;;18.08;13.55;;;15.10;99.90;;;;;;4978448;28;20081;-85
2023/05/08 08:26:09;;;;;;;17.30;13.25;;;15.10;99.90;;;;;;4994364;28;20116;-82
2023/05/08 08:28:35;;;;;;;17.42;13.48;;;15.30;99.90;;;;;;4968794;28;20051;-83
2023/05/08 08:31:01;;;;;;;16.48;13.05;;;15.30;99.90;;;;;;4957932;28;20043;-83
2023/05/08 08:33:28;;;;;;;17.00;13.02;;;15.40;99.90;;;;;;4958166;28;20042;-83
2023/05/08 08:35:54;;;;;;;18.25;13.95;;;15.50;99.90;;;;;;4957773;28;20723;-82
2023/05/08 08:38:20;;;;;;;17.95;13.60;;;15.50;99.90;;;;;;4958333;28;20117;-81
2023/05/08 08:40:45;;;;;;;18.00;14.00;;;15.60;99.90;;;;;;4957873;28;20042;-81
2023/05/08 08:43:11;;;;;;;16.80;13.88;;;15.70;99.90;;;;;;4958143;28;20081;-82
2023/05/08 08:45:37;;;;;;;19.73;13.63;;;15.70;99.90;;;;;;4958209;28;20069;-80
2023/05/08 08:48:03;;;;;;;18.05;13.38;;;15.80;99.90;;;;;;4957634;28;20090;-81
2023/05/08 08:50:34;;;;;;;17.27;13.45;;;15.90;99.90;;;;;;4941502;28;20095;-81
2023/05/08 08:53:07;;;;;;;17.77;13.52;;;15.90;99.90;;;;;;4941970;28;20043;-82
2023/05/08 08:55:38;;;;;;;19.05;14.00;;;16.00;99.90;;;;;;4957805;28;20046;-82
2023/05/08 08:58:13;;;;;;;18.25;14.52;;;16.10;99.90;;;;;;4958444;28;20050;-81
2023/05/08 09:00:40;;;;;;;16.52;13.50;;;16.20;99.90;;;;;;4957516;28;20086;-81
2023/05/08 09:03:08;;;;;;;18.67;13.73;;;16.30;99.90;;;;;;4957716;28;20069;-82
2023/05/08 09:05:35;;;;;;;17.25;13.05;;;16.30;99.90;;;;;;4975325;28;20074;-82
2023/05/08 09:08:01;;;;;;;19.88;14.13;;;16.50;99.90;;;;;;4957897;28;20129;-80
2023/05/08 09:10:27;;;;;;;18.58;14.38;;;16.60;99.90;;;;;;4956658;28;20086;-80
2023/05/08 09:12:53;;;;;;;19.05;14.13;;;16.60;99.90;;;;;;4974954;28;20034;-81
2023/05/08 09:15:18;;;;;;;18.95;14.70;;;16.70;99.90;;;;;;4958216;28;20039;-82
2023/05/08 09:17:44;;;;;;;19.13;13.45;;;16.70;99.90;;;;;;4957302;28;20130;-82
2023/05/08 09:20:12;;;;;;;18.60;13.85;;;16.70;99.90;;;;;;4957611;28;20038;-81
2023/05/08 09:22:39;;;;;;;18.25;13.65;;;16.80;99.90;;;;;;4957656;28;20035;-77
2023/05/08 09:25:06;;;;;;;19.15;13.50;;;16.90;99.90;;;;;;4974645;28;20067;-80
2023/05/08 09:27:32;;;;;;;25.02;13.88;;;16.90;99.90;;;;;;4975441;28;20098;-86
2023/05/08 09:30:01;;;;;;;17.50;13.00;;;17.10;99.90;;;;;;4975703;28;20074;-86
2023/05/08 09:32:31;;;;;;;17.58;13.45;;;17.20;99.90;;;;;;4974376;28;20053;-81
2023/05/08 09:34:58;;;;;;;17.35;13.57;;;17.30;99.90;;;;;;4973943;28;20043;-84
2023/05/08 09:37:25;;;;;;;17.50;14.30;;;17.60;99.90;;;;;;4956675;28;20138;-79
2023/05/08 09:39:51;;;;;;;17.65;14.25;;;17.90;99.90;;;;;;4957412;28;20046;-82
2023/05/08 09:42:17;;;;;;;23.80;15.43;;;18.10;99.90;;;;;;4940831;28;20045;-85
2023/05/08 09:44:52;;;;;;;23.85;14.88;;;18.30;99.90;;;;;;4956573;28;20118;-83
2023/05/08 09:47:23;;;;;;;18.05;14.93;;;18.40;99.90;;;;;;4941180;28;20042;-82
2023/05/08 09:50:09;;;;;;;19.10;14.20;;;18.60;99.90;;;;;;4957423;28;20082;-84
2023/05/08 09:52:37;;;;;;;20.42;14.55;;;18.90;99.90;;;;;;4956439;28;20050;-83
2023/05/08 09:55:08;;;;;;;17.67;13.80;;;19.10;99.90;;;;;;4956674;28;20077;-84
2023/05/08 09:57:37;;;;;;;16.73;13.30;;;19.30;99.90;;;;;;4956506;28;20053;-84
2023/05/08 10:00:11;;;;;;;17.35;13.75;;;19.90;99.90;;;;;;4957064;28;20038;-81
2023/05/08 10:02:41;;;;;;;15.90;13.75;;;20.30;99.90;;;;;;4941461;28;20043;-82
2023/05/08 10:05:35;;;;;;;17.73;14.23;;;20.60;99.90;;;;;;4956496;28;20039;-82
2023/05/08 10:08:24;;;;;;;18.45;14.10;;;21.10;99.90;;;;;;4971482;28;20494;-82
2023/05/08 10:10:50;;;;;;;18.05;14.45;;;21.30;99.90;;;;;;4956766;28;20145;-86
2023/05/08 10:13:16;;;;;;;17.40;13.80;;;21.50;99.90;;;;;;4973917;28;20066;-84
2023/05/08 10:15:43;;;;;;;19.80;14.13;;;21.70;99.90;;;;;;4973513;28;20550;-84
2023/05/08 10:18:10;;;;;;;18.13;13.80;;;21.70;99.90;;;;;;4956619;28;20043;-72
2023/05/08 10:20:43;;;;;;;17.52;13.45;;;21.70;99.90;;;;;;4974280;28;20043;-81
2023/05/08 10:23:13;;;;;;;16.60;13.75;;;21.70;99.90;;;;;;4960113;28;20054;-80
2023/05/08 10:25:54;;;;;;;20.27;15.05;;;21.60;99.90;;;;;;4959949;28;20434;-79
2023/05/08 10:28:34;;;;;;;18.92;14.35;;;21.50;99.90;;;;;;4959986;28;20554;-79
2023/05/08 10:31:01;;;;;;;18.50;14.05;;;21.20;99.90;;;;;;4977094;28;20058;-80
2023/05/08 10:33:30;;;;;;;19.33;14.75;;;21.00;99.90;;;;;;4959528;28;20043;-79
2023/05/08 10:35:56;;;;;;;16.83;13.65;;;20.80;99.90;;;;;;4977033;28;20047;-80
2023/05/08 10:38:22;;;;;;;17.83;14.48;;;20.80;99.90;;;;;;4959657;28;20092;-79
2023/05/08 10:40:52;;;;;;;19.98;15.25;;;20.90;99.90;;;;;;4959754;28;20437;-78
2023/05/08 10:43:18;;;;;;;18.90;14.90;;;20.80;99.90;;;;;;4943798;28;20042;-80
2023/05/08 10:45:44;;;;;;;17.88;14.73;;;20.70;99.90;;;;;;4959273;28;20042;-81
2023/05/08 10:48:35;;;;;;;19.35;14.90;;;20.60;99.90;;;;;;4959328;28;20490;-82
2023/05/08 10:51:15;;;;;;;17.05;14.10;;;20.60;99.90;;;;;;4959069;28;20054;-78
2023/05/08 10:53:54;;;;;;;16.33;13.57;;;20.60;99.90;;;;;;4959267;28;20039;-80
2023/05/08 10:56:27;;;;;;;17.95;14.20;;;20.60;99.90;;;;;;4959156;28;20034;-79
2023/05/08 10:58:56;;;;;;;18.60;14.50;;;20.60;99.90;;;;;;4976554;28;20118;-72
2023/05/08 11:01:26;;;;;;;17.15;14.32;;;20.70;99.90;;;;;;4977814;28;20053;-76
2023/05/08 11:03:53;;;;;;;18.02;14.13;;;20.80;99.90;;;;;;4978139;28;20431;-82
2023/05/08 11:06:43;;;;;;;18.42;14.88;;;20.80;99.90;;;;;;4978482;28;20506;-78
2023/05/08 11:09:26;;;;;;;19.35;14.57;;;20.90;99.90;;;;;;4995841;28;20122;-79
2023/05/08 11:12:06;;;;;;;17.15;13.98;;;21.00;99.90;;;;;;4995382;28;20057;-80
2023/05/08 11:14:35;;;;;;;16.70;13.13;;;21.00;99.90;;;;;;4978077;28;20090;-80
2023/05/08 11:17:01;;;;;;;18.23;14.38;;;21.00;99.90;;;;;;4978256;28;20069;-79
2023/05/08 11:19:27;;;;;;;17.45;13.82;;;21.00;99.90;;;;;;4978168;28;20038;-78
2023/05/08 11:22:15;;;;;;;19.02;13.82;;;21.00;99.90;;;;;;4978178;28;20145;-79
2023/05/08 11:24:55;;;;;;;18.38;15.23;;;21.10;99.90;;;;;;4978609;28;20057;-79
2023/05/08 11:27:49;;;;;;;19.45;15.00;;;21.20;99.90;;;;;;4977971;28;20046;-79
2023/05/08 11:30:22;;;;;;;24.27;15.10;;;21.20;99.90;;;;;;4977541;28;20050;-77
2023/05/08 11:33:02;;;;;;;21.48;16.92;;;21.20;99.90;;;;;;4977346;28;20149;-80
2023/05/08 11:35:57;;;;;;;21.48;15.68;;;21.20;99.90;;;;;;4977629;28;20486;-80
2023/05/08 11:38:42;;;;;;;21.00;16.67;;;21.20;99.90;;;;;;4977260;28;20077;-79
2023/05/08 11:41:22;;;;;;;21.15;17.40;;;21.30;99.90;;;;;;4977809;28;20125;-80
2023/05/08 11:43:54;;;;;;;20.42;16.77;;;21.40;99.90;;;;;;4977837;28;20096;-80
2023/05/08 11:46:20;;;;;;;23.50;16.63;;;21.40;99.90;;;;;;4977493;28;20050;-81
2023/05/08 11:48:47;;;;;;;24.67;19.15;;;21.40;99.90;;;;;;4962152;28;20038;-80
2023/05/08 11:51:15;;;;;;;23.63;17.85;;;21.50;99.90;;;;;;4994684;28;20390;-81
2023/05/08 11:53:43;;;;;;;28.20;19.52;;;21.60;99.90;;;;;;4977577;28;20042;-82
2023/05/08 11:56:09;;;;;;;25.42;18.40;;;21.60;99.90;;;;;;4977482;28;20161;-81
2023/05/08 11:58:35;;;;;;;23.08;18.35;;;21.70;99.90;;;;;;4977798;28;20082;-81
2023/05/08 12:01:01;;;;;;;23.67;18.35;;;21.80;99.90;;;;;;4977082;28;20050;-78
2023/05/08 12:03:27;;;;;;;26.08;19.70;;;21.70;99.90;;;;;;4994735;28;20078;-81
2023/05/08 12:05:57;;;;;;;24.00;17.48;;;21.60;99.90;;;;;;4977074;28;20084;-80
2023/05/08 12:08:23;;;;;;;21.33;17.58;;;21.60;99.90;;;;;;4977140;28;20125;-79
2023/05/08 12:10:53;;;;;;;22.55;17.88;;;21.70;99.90;;;;;;4977067;28;20161;-82
2023/05/08 12:13:24;;;;;;;22.92;19.15;;;21.60;99.90;;;;;;4994818;28;20089;-82
2023/05/08 12:15:55;;;;;;;21.92;17.42;;;21.70;99.90;;;;;;4977017;28;20038;-79
2023/05/08 12:18:22;;;;;;;22.05;17.83;;;21.70;99.90;;;;;;4977299;28;20038;-80
2023/05/08 12:20:52;;;;;;;25.02;18.65;;;21.80;99.90;;;;;;4977055;28;20058;-81
2023/05/08 12:23:18;;;;;;;22.50;18.98;;;22.00;99.90;;;;;;4994993;28;20421;-81
2023/05/08 12:25:44;;;;;;;27.35;19.40;;;22.00;99.90;;;;;;4994257;28;20125;-82
2023/05/08 12:28:10;;;;;;;24.55;19.33;;;22.10;99.90;;;;;;4977023;28;20077;-79
2023/05/08 12:30:36;;;;;;;24.88;18.92;;;22.20;99.90;;;;;;4976807;28;20045;-81
2023/05/08 12:33:03;;;;;;;22.45;18.13;;;22.40;99.90;;;;;;4976807;28;20038;-79
2023/05/08 12:35:30;;;;;;;23.92;18.50;;;22.50;99.90;;;;;;4976694;28;20057;-78
2023/05/08 12:38:03;;;;;;;23.67;18.95;;;22.50;99.90;;;;;;4976715;28;20062;-79
2023/05/08 12:40:32;;;;;;;24.10;18.77;;;22.40;99.90;;;;;;4994175;28;20064;-82
2023/05/08 12:43:02;;;;;;;25.45;19.40;;;22.50;99.90;;;;;;4976864;28;20054;-78
2023/05/08 12:45:32;;;;;;;22.88;18.85;;;22.50;99.90;;;;;;4993447;28;20041;-82
2023/05/08 12:48:03;;;;;;;23.05;18.80;;;22.70;99.90;;;;;;4976895;28;20128;-82
2023/05/08 12:50:37;;;;;;;23.00;18.83;;;22.70;99.90;;;;;;4976422;28;20049;-81
2023/05/08 12:53:04;;;;;;;23.63;18.48;;;22.50;99.90;;;;;;4976908;28;20389;-80
2023/05/08 12:55:32;;;;;;;24.52;18.77;;;22.50;99.90;;;;;;4993686;28;20034;-82
2023/05/08 12:58:11;;;;;;;22.98;18.88;;;22.60;99.90;;;;;;4976372;28;20038;-81
2023/05/08 13:00:41;;;;;;;23.50;18.50;;;22.70;99.90;;;;;;4976118;28;20104;-81
2023/05/08 13:03:08;;;;;;;23.90;19.40;;;22.70;99.90;;;;;;4976376;28;20049;-82
2023/05/08 13:05:36;;;;;;;24.08;17.80;;;22.70;99.90;;;;;;4993806;28;20077;-79
2023/05/08 13:08:09;;;;;;;24.25;17.98;;;22.70;99.90;;;;;;4976495;28;20394;-80
2023/05/08 13:10:54;;;;;;;22.23;17.25;;;22.70;99.90;;;;;;4976370;28;20057;-80
2023/05/08 13:13:24;;;;;;;22.77;18.63;;;22.50;99.90;;;;;;4976246;28;20368;-82
2023/05/08 13:15:51;;;;;;;23.83;18.35;;;22.40;99.90;;;;;;4976207;28;20489;-79
2023/05/08 13:18:19;;;;;;;26.88;18.70;;;22.30;99.90;;;;;;4975944;28;20035;-80
2023/05/08 13:20:45;;;;;;;23.52;20.23;;;22.30;99.90;;;;;;4959941;28;20054;-79
2023/05/08 13:23:11;;;;;;;28.13;20.02;;;22.30;99.90;;;;;;4993573;28;20042;-80
2023/05/08 13:25:38;;;;;;;36.08;20.73;;;22.20;99.90;;;;;;4976109;28;20113;-79
2023/05/08 13:28:05;;;;;;;23.58;18.60;;;22.20;99.90;;;;;;4975904;28;20077;-81
2023/05/08 13:30:30;;;;;;;23.83;18.15;;;22.30;99.90;;;;;;4993227;28;20085;-80
2023/05/08 13:32:56;;;;;;;22.50;18.60;;;22.40;99.90;;;;;;4975971;28;20125;-78
2023/05/08 13:35:23;;;;;;;21.40;18.05;;;22.40;99.90;;;;;;4976191;28;20493;-80
2023/05/08 13:37:49;;;;;;;22.58;17.88;;;22.50;99.90;;;;;;4976144;28;20046;-79
2023/05/08 13:40:16;;;;;;;21.25;17.23;;;22.40;99.90;;;;;;4976110;28;20390;-81
2023/05/08 13:42:42;;;;;;;19.92;16.30;;;22.20;99.90;;;;;;4976254;28;20042;-81
2023/05/08 13:45:09;;;;;;;20.38;16.52;;;22.10;99.90;;;;;;4975809;28;20403;-79
2023/05/08 13:47:35;;;;;;;24.83;19.42;;;22.00;99.90;;;;;;4975668;28;20046;-79
2023/05/08 13:50:02;;;;;;;25.88;19.25;;;22.00;99.90;;;;;;4985658;28;20061;-77
2023/05/08 13:52:29;;;;;;;27.08;19.95;;;22.10;99.90;;;;;;4992965;28;20062;-80
2023/05/08 13:54:55;;;;;;;28.10;20.52;;;22.20;99.90;;;;;;4959609;28;20133;-80
2023/05/08 13:57:21;;;;;;;23.52;20.17;;;22.50;99.90;;;;;;4979468;28;20165;-80
2023/05/08 13:59:47;;;;;;;26.80;21.85;;;22.90;99.90;;;;;;4980276;28;20030;-79
2023/05/08 14:02:12;;;;;;;25.85;21.50;;;23.00;99.90;;;;;;4979163;28;20100;-79
2023/05/08 14:04:39;;;;;;;27.80;21.75;;;22.90;99.90;;;;;;4996854;28;20065;-82
2023/05/08 14:07:05;;;;;;;29.77;23.08;;;23.00;99.90;;;;;;4979307;28;20050;-81
2023/05/08 14:09:31;;;;;;;29.13;23.13;;;22.70;99.90;;;;;;4987760;28;20042;-82
2023/05/08 14:11:57;;;;;;;28.65;22.42;;;22.70;99.90;;;;;;4989876;28;20065;-79
2023/05/08 14:14:22;;;;;;;25.15;21.42;;;22.80;99.90;;;;;;4996951;28;20037;-80
2023/05/08 14:16:49;;;;;;;43.20;32.85;;;22.80;99.90;;;;;;4998546;28;20038;-78
2023/05/08 14:19:15;;;;;;;46.45;35.00;;;22.70;99.90;;;;;;4999020;28;20385;-81
2023/05/08 14:21:42;;;;;;;44.92;35.70;;;22.60;99.90;;;;;;4998458;28;20049;-78
2023/05/08 14:24:08;;;;;;;41.75;33.88;;;22.30;99.90;;;;;;4998443;28;20057;-78
2023/05/08 14:26:34;;;;;;;48.00;36.90;;;22.10;99.90;;;;;;4998837;28;20057;-82
2023/05/08 14:28:59;;;;;;;46.80;35.17;;;21.80;99.90;;;;;;5016412;28;20037;-81
2023/05/08 14:31:25;;;;;;;44.30;35.28;;;21.40;99.90;;;;;;5015856;28;20493;-83
2023/05/08 14:33:51;;;;;;;48.63;36.58;;;21.10;99.90;;;;;;4998668;28;20042;-81
2023/05/08 14:36:16;;;;;;;45.85;35.47;;;20.90;99.90;;;;;;4998360;28;20057;-82
2023/05/08 14:38:54;;;;;;;;;;;;;;;;;;;;;
2023/05/08 14:41:20;;;;;;;49.40;36.83;;;20.90;99.90;;;;;;4997983;28;20045;-83
2023/05/08 14:43:49;;;;;;;45.35;35.30;;;21.10;99.90;;;;;;5015741;28;20041;-82
2023/05/08 14:46:15;;;;;;;43.03;32.75;;;21.10;99.90;;;;;;4998073;28;20090;-80
2023/05/08 14:48:41;;;;;;;43.72;35.70;;;21.20;99.90;;;;;;4998398;28;20045;-82
2023/05/08 14:51:07;;;;;;;43.53;31.92;;;21.20;99.90;;;;;;4998710;28;20121;-83
2023/05/08 14:53:33;;;;;;;44.63;35.28;;;21.20;99.90;;;;;;5015976;28;20116;-82
2023/05/08 14:55:59;;;;;;;47.03;35.40;;;21.00;99.90;;;;;;4997749;28;20419;-84
2023/05/08 14:58:25;;;;;;;45.55;35.40;;;21.00;99.90;;;;;;4998289;28;20049;-81
2023/05/08 15:00:50;;;;;;;44.00;34.60;;;21.10;99.90;;;;;;5005730;28;20485;-81
2023/05/08 15:03:16;;;;;;;45.60;34.13;;;21.20;99.90;;;;;;4978550;28;20042;-82
2023/05/08 15:05:42;;;;;;;44.38;34.05;;;21.30;99.90;;;;;;4978689;28;20054;-81
2023/05/08 15:08:08;;;;;;;45.03;35.47;;;21.50;99.90;;;;;;4977569;28;20121;-81
2023/05/08 15:10:34;;;;;;;46.40;34.22;;;21.50;99.90;;;;;;4978314;28;20061;-84
2023/05/08 15:13:00;;;;;;;45.22;36.33;;;21.60;99.90;;;;;;4978403;28;20042;-81
2023/05/08 15:15:26;;;;;;;43.10;34.38;;;21.40;99.90;;;;;;4978534;28;20372;-79
2023/05/08 15:17:52;;;;;;;44.80;35.00;;;21.50;99.90;;;;;;4979296;28;20113;-80
2023/05/08 15:20:17;;;;;;;42.45;34.00;;;21.70;99.90;;;;;;4996823;28;20046;-78
2023/05/08 15:22:43;;;;;;;44.60;35.08;;;21.80;99.90;;;;;;4978216;28;20042;-81
2023/05/08 15:25:09;;;;;;;47.63;35.47;;;21.80;99.90;;;;;;4978036;28;20057;-82
2023/05/08 15:27:35;;;;;;;43.78;34.22;;;21.90;99.90;;;;;;4977902;28;20050;-83
2023/05/08 15:30:00;;;;;;;42.30;33.70;;;22.00;99.90;;;;;;4977934;28;20077;-82
2023/05/08 15:32:26;;;;;;;42.25;32.88;;;22.00;99.90;;;;;;4977627;28;20378;-83
2023/05/08 15:34:52;;;;;;;41.35;33.55;;;22.00;99.90;;;;;;4979034;28;20050;-82